createdAt,value
2023-05-10T00:00:46.396Z,4.75
2023-05-10T00:03:14.179Z,4.45
2023-05-10T00:05:41.780Z,4.50
2023-05-10T00:10:57.769Z,4.82
2023-05-10T00:13:25.854Z,3.67
2023-05-10T00:18:20.949Z,4.13
2023-05-10T00:20:49.816Z,4.40
2023-05-10T00:23:17.617Z,4.95
2023-05-10T00:25:45.156Z,5.13
2023-05-10T00:28:13.754Z,4.72
2023-05-10T00:30:41.288Z,5.60
2023-05-10T00:33:09.000Z,4.30
2023-05-10T00:35:37.037Z,5.30
2023-05-10T00:40:32.348Z,4.40
2023-05-10T00:43:04.614Z,3.90
2023-05-10T00:45:37.364Z,5.50
2023-05-10T00:48:05.613Z,5.95
2023-05-10T00:50:34.959Z,6.55
2023-05-10T00:53:03.491Z,5.45
2023-05-10T00:55:32.629Z,4.93
2023-05-10T00:58:00.718Z,4.40
2023-05-10T01:00:28.635Z,5.07
2023-05-10T01:05:24.433Z,5.72
2023-05-10T01:07:52.592Z,5.07
2023-05-10T01:10:20.459Z,4.57
2023-05-10T01:12:49.050Z,4.90
2023-05-10T01:15:19.701Z,4.85
2023-05-10T01:17:49.577Z,4.95
2023-05-10T01:20:17.862Z,4.68
2023-05-10T01:22:57.525Z,4.55
2023-05-10T01:25:56.418Z,5.18
2023-05-10T01:28:29.761Z,4.00
2023-05-10T01:31:17.057Z,5.47
2023-05-10T01:34:17.658Z,5.25
2023-05-10T01:36:53.638Z,6.03
2023-05-10T01:39:29.691Z,4.90
2023-05-10T01:42:06.161Z,5.78
2023-05-10T01:45:09.000Z,6.68
2023-05-10T01:48:12.021Z,5.50
2023-05-10T01:50:44.528Z,5.30
2023-05-10T01:53:14.412Z,5.40
2023-05-10T01:55:49.597Z,4.90
2023-05-10T01:58:31.025Z,6.30
2023-05-10T02:01:02.278Z,6.28
2023-05-10T02:03:33.329Z,5.47
2023-05-10T02:06:01.162Z,6.50
2023-05-10T02:08:30.342Z,5.10
2023-05-10T02:10:59.887Z,6.15
2023-05-10T02:13:31.125Z,6.80
2023-05-10T02:16:00.224Z,5.85
2023-05-10T02:18:28.703Z,5.68
2023-05-10T02:21:01.896Z,5.40
2023-05-10T02:23:33.214Z,5.78
2023-05-10T02:26:03.003Z,5.72
2023-05-10T02:28:32.299Z,4.93
2023-05-10T02:31:01.694Z,4.95
2023-05-10T02:33:30.744Z,6.88
2023-05-10T02:35:58.948Z,6.28
2023-05-10T02:40:55.671Z,4.38
2023-05-10T02:43:25.033Z,5.15
2023-05-10T02:45:54.401Z,5.57
2023-05-10T02:48:22.580Z,5.57
2023-05-10T02:53:30.579Z,5.97
2023-05-10T02:56:01.681Z,5.95
2023-05-10T02:58:32.952Z,7.63
2023-05-10T03:01:01.742Z,6.60
2023-05-10T03:03:29.319Z,6.38
2023-05-10T03:05:57.804Z,5.80
2023-05-10T03:08:26.752Z,6.95
2023-05-10T03:11:30.558Z,5.97
2023-05-10T03:14:26.212Z,5.88
2023-05-10T03:17:00.650Z,5.78
2023-05-10T03:19:52.827Z,6.03
2023-05-10T03:22:38.239Z,5.85
2023-05-10T03:25:12.613Z,5.80
2023-05-10T03:27:44.384Z,5.85
2023-05-10T03:30:14.215Z,5.43
2023-05-10T03:32:42.689Z,6.70
2023-05-10T03:35:11.812Z,6.22
2023-05-10T03:37:39.807Z,5.60
2023-05-10T03:42:38.320Z,6.72
2023-05-10T03:45:06.906Z,6.60
2023-05-10T03:47:34.498Z,6.55
2023-05-10T03:50:04.085Z,5.38
2023-05-10T03:52:32.966Z,4.85
2023-05-10T03:55:00.485Z,4.80
2023-05-10T03:57:28.403Z,5.75
2023-05-10T03:59:57.513Z,5.82
2023-05-10T04:02:25.276Z,6.32
2023-05-10T04:04:53.383Z,5.97
2023-05-10T04:07:21.414Z,5.85
2023-05-10T04:09:48.990Z,6.07
2023-05-10T04:12:16.527Z,5.68
2023-05-10T04:14:44.432Z,5.68
2023-05-10T04:17:12.100Z,5.28
2023-05-10T04:22:07.591Z,5.45
2023-05-10T04:24:36.151Z,5.50
2023-05-10T04:27:04.079Z,5.38
2023-05-10T04:29:35.230Z,5.80
2023-05-10T04:32:03.418Z,6.25
2023-05-10T04:34:30.944Z,5.30
2023-05-10T04:36:58.500Z,5.70
2023-05-10T04:39:26.061Z,5.97
2023-05-10T04:41:54.008Z,5.70
2023-05-10T04:49:17.846Z,5.88
2023-05-10T04:54:13.847Z,6.10
2023-05-10T04:56:42.115Z,6.40
2023-05-10T04:59:09.634Z,6.00
2023-05-10T05:01:37.369Z,6.28
2023-05-10T05:04:05.179Z,6.72
2023-05-10T05:06:33.520Z,5.80
2023-05-10T05:09:01.291Z,6.75
2023-05-10T05:11:29.544Z,5.97
2023-05-10T05:16:24.680Z,5.93
2023-05-10T05:18:52.382Z,6.63
2023-05-10T05:21:21.198Z,7.32
2023-05-10T05:23:48.897Z,6.53
2023-05-10T05:26:17.341Z,6.57
2023-05-10T05:28:45.260Z,6.38
2023-05-10T05:31:13.154Z,7.43
2023-05-10T05:33:41.940Z,6.07
2023-05-10T05:36:10.120Z,5.95
2023-05-10T05:41:05.582Z,6.22
2023-05-10T05:46:03.037Z,6.80
2023-05-10T05:48:33.874Z,6.93
2023-05-10T05:51:01.481Z,6.25
2023-05-10T05:53:29.090Z,7.13
2023-05-10T05:55:59.567Z,7.70
2023-05-10T05:58:29.220Z,6.30
2023-05-10T06:00:58.777Z,5.72
2023-05-10T06:03:26.675Z,6.85
2023-05-10T06:05:54.304Z,6.47
2023-05-10T06:08:22.188Z,5.88
2023-05-10T06:10:50.040Z,6.30
2023-05-10T06:13:18.155Z,5.70
2023-05-10T06:15:46.466Z,5.68
2023-05-10T06:18:14.244Z,5.50
2023-05-10T06:20:44.289Z,5.10
2023-05-10T06:23:12.118Z,5.50
2023-05-10T06:25:39.888Z,5.63
2023-05-10T06:28:07.747Z,6.10
2023-05-10T06:30:36.766Z,4.78
2023-05-10T06:33:04.934Z,4.13
2023-05-10T06:35:34.873Z,4.40
2023-05-10T06:38:02.932Z,3.22
2023-05-10T06:40:30.640Z,5.30
2023-05-10T06:42:58.228Z,3.78
2023-05-10T06:45:25.913Z,4.78
2023-05-10T06:47:53.591Z,4.38
2023-05-10T06:50:21.126Z,3.90
2023-05-10T06:52:52.308Z,3.40
2023-05-10T06:55:21.056Z,3.38
2023-05-10T06:57:49.036Z,2.90
2023-05-10T07:02:45.804Z,3.50
2023-05-10T07:05:13.609Z,3.13
2023-05-10T07:07:41.640Z,3.35
2023-05-10T07:12:37.203Z,2.75
2023-05-10T07:15:05.959Z,2.75
2023-05-10T07:17:34.757Z,2.33
2023-05-10T07:20:02.844Z,1.65
2023-05-10T07:22:30.447Z,2.85
2023-05-10T07:24:59.760Z,2.00
2023-05-10T07:27:28.212Z,2.25
2023-05-10T07:29:57.373Z,2.53
2023-05-10T07:32:25.101Z,1.85
2023-05-10T07:34:52.890Z,3.10
2023-05-10T07:37:20.525Z,1.90
2023-05-10T07:39:48.452Z,2.40
2023-05-10T07:42:16.216Z,2.90
2023-05-10T07:44:44.365Z,2.47
2023-05-10T07:49:39.549Z,2.63
2023-05-10T07:52:07.574Z,2.60
2023-05-10T07:57:03.991Z,2.90
2023-05-10T07:59:31.576Z,2.00
2023-05-10T08:01:59.478Z,2.00
2023-05-10T08:04:27.150Z,2.22
2023-05-10T08:06:54.978Z,3.15
2023-05-10T08:09:25.133Z,2.90
2023-05-10T08:11:53.093Z,3.30
2023-05-10T08:14:20.950Z,3.10
2023-05-10T08:16:48.593Z,3.55
2023-05-10T08:19:20.773Z,2.85
2023-05-10T08:21:48.934Z,3.20
2023-05-10T08:24:16.916Z,2.88
2023-05-10T08:29:12.235Z,2.75
2023-05-10T08:31:39.966Z,3.42
2023-05-10T08:34:07.575Z,3.13
2023-05-10T08:36:35.254Z,3.03
2023-05-10T08:39:03.219Z,2.92
2023-05-10T08:43:59.384Z,2.85
2023-05-10T08:46:28.611Z,2.97
2023-05-10T08:48:56.964Z,2.53
2023-05-10T08:51:27.977Z,2.30
2023-05-10T08:53:56.455Z,3.10
2023-05-10T08:56:25.196Z,3.17
2023-05-10T08:58:52.957Z,3.28
2023-05-10T09:01:22.643Z,3.70
2023-05-10T09:03:52.240Z,2.85
2023-05-10T09:06:20.800Z,2.83
2023-05-10T09:08:49.079Z,3.22
2023-05-10T09:11:17.432Z,3.92
2023-05-10T09:13:45.515Z,3.50
2023-05-10T09:16:21.213Z,3.47
2023-05-10T09:18:50.625Z,3.50
2023-05-10T09:21:19.998Z,3.03
2023-05-10T09:23:48.886Z,3.28
2023-05-10T09:26:18.512Z,2.80
2023-05-10T09:28:55.475Z,2.70
2023-05-10T09:31:23.765Z,2.03
2023-05-10T09:33:52.492Z,2.70
2023-05-10T09:36:20.281Z,2.40
2023-05-10T09:38:52.989Z,2.33
2023-05-10T09:41:23.126Z,1.70
2023-05-10T09:43:52.490Z,1.77
2023-05-10T09:46:20.167Z,2.17
2023-05-10T09:48:48.821Z,1.55
2023-05-10T09:51:24.345Z,1.90
2023-05-10T09:54:16.340Z,2.13
2023-05-10T09:56:44.004Z,1.85
2023-05-10T09:59:13.659Z,1.55
2023-05-10T10:01:42.228Z,1.70
2023-05-10T10:04:11.326Z,1.40
2023-05-10T10:06:42.357Z,1.30
2023-05-10T10:09:10.600Z,1.80
2023-05-10T10:11:39.829Z,1.58
2023-05-10T10:14:07.492Z,1.50
2023-05-10T10:16:36.227Z,1.45
2023-05-10T10:19:04.462Z,1.70
2023-05-10T10:21:32.587Z,1.30
2023-05-10T10:24:02.115Z,2.00
2023-05-10T10:26:30.403Z,1.60
2023-05-10T10:29:23.313Z,1.77
2023-05-10T10:32:35.660Z,1.70
2023-05-10T10:35:04.160Z,1.35
2023-05-10T10:37:51.502Z,1.42
2023-05-10T10:40:26.893Z,1.20
2023-05-10T10:42:55.372Z,0.90
2023-05-10T10:45:25.871Z,0.80
2023-05-10T10:48:24.698Z,0.88
2023-05-10T10:50:59.404Z,1.10
2023-05-10T10:53:30.548Z,1.40
2023-05-10T10:56:12.662Z,1.10
2023-05-10T10:58:41.424Z,1.30
2023-05-10T11:01:18.237Z,0.90
2023-05-10T11:04:04.562Z,1.20
2023-05-10T11:06:33.832Z,1.30
2023-05-10T11:09:11.283Z,1.30
2023-05-10T11:11:59.541Z,1.30
2023-05-10T11:14:27.364Z,1.35
2023-05-10T11:16:55.136Z,1.50
2023-05-10T11:19:22.804Z,1.52
2023-05-10T11:22:14.082Z,1.58
2023-05-10T11:24:59.169Z,1.30
2023-05-10T11:27:27.099Z,1.50
2023-05-10T11:29:54.691Z,1.67
2023-05-10T11:32:23.162Z,1.65
2023-05-10T11:34:50.838Z,1.80
2023-05-10T11:37:19.819Z,1.77
2023-05-10T11:39:54.276Z,1.60
2023-05-10T11:42:22.662Z,1.40
2023-05-10T11:44:50.909Z,1.27
2023-05-10T11:47:19.060Z,1.30
2023-05-10T11:49:47.952Z,1.42
2023-05-10T11:52:16.032Z,1.40
2023-05-10T11:54:52.982Z,1.60
2023-05-10T11:57:22.561Z,0.80
2023-05-10T11:59:56.044Z,1.02
2023-05-10T12:02:24.095Z,1.17
2023-05-10T12:04:52.740Z,1.40
2023-05-10T12:07:20.755Z,1.00
2023-05-10T12:12:45.832Z,0.80
2023-05-10T12:15:24.978Z,0.80
2023-05-10T12:17:52.948Z,0.90
2023-05-10T12:20:24.232Z,1.50
2023-05-10T12:22:54.289Z,1.10
2023-05-10T12:25:23.858Z,1.00
2023-05-10T12:27:59.339Z,1.20
2023-05-10T12:30:29.508Z,1.20
2023-05-10T12:33:18.401Z,0.60
2023-05-10T12:35:48.594Z,0.80
2023-05-10T12:38:35.652Z,0.98
2023-05-10T12:41:08.992Z,0.75
2023-05-10T12:43:37.846Z,1.52
2023-05-10T12:46:18.349Z,0.95
2023-05-10T12:48:48.495Z,1.33
2023-05-10T12:51:18.601Z,1.30
2023-05-10T12:53:51.344Z,2.08
2023-05-10T12:56:18.938Z,2.10
2023-05-10T12:58:49.237Z,1.50
2023-05-10T13:01:17.078Z,1.85
2023-05-10T13:03:44.933Z,1.08
2023-05-10T13:06:14.456Z,1.70
2023-05-10T13:08:42.009Z,1.63
2023-05-10T13:11:09.766Z,1.17
2023-05-10T13:13:37.379Z,1.33
2023-05-10T13:16:05.305Z,1.70
2023-05-10T13:18:33.122Z,1.80
2023-05-10T13:21:00.773Z,1.33
2023-05-10T13:23:28.559Z,2.22
2023-05-10T13:25:56.380Z,1.55
2023-05-10T13:28:24.012Z,1.50
2023-05-10T13:30:51.517Z,1.52
2023-05-10T13:33:19.125Z,1.50
2023-05-10T13:35:46.684Z,1.05
2023-05-10T13:38:14.885Z,1.63
2023-05-10T13:40:42.808Z,1.80
2023-05-10T13:45:37.943Z,2.70
2023-05-10T13:48:05.802Z,3.90
2023-05-10T13:50:33.392Z,3.92
2023-05-10T13:53:01.217Z,2.38
2023-05-10T13:55:29.708Z,3.22
2023-05-10T13:57:57.260Z,2.42
2023-05-10T14:00:24.950Z,3.20
2023-05-10T14:02:52.734Z,3.15
2023-05-10T14:05:25.154Z,3.50
2023-05-10T14:07:53.794Z,2.22
2023-05-10T14:10:21.312Z,2.85
2023-05-10T14:12:48.878Z,2.25
2023-05-10T14:15:17.176Z,2.60
2023-05-10T14:17:45.073Z,2.40
2023-05-10T14:20:12.739Z,2.17
2023-05-10T14:22:41.304Z,3.03
2023-05-10T14:25:09.502Z,1.77
2023-05-10T14:27:37.650Z,2.03
2023-05-10T14:30:05.703Z,1.70
2023-05-10T14:32:33.544Z,2.25
2023-05-10T14:35:01.206Z,2.90
2023-05-10T14:37:28.765Z,3.70
2023-05-10T14:39:56.414Z,4.00
2023-05-10T14:42:24.146Z,5.20
2023-05-10T14:44:52.180Z,3.97
2023-05-10T14:49:48.445Z,2.75
2023-05-10T14:52:16.386Z,2.75
2023-05-10T14:54:44.029Z,2.15
2023-05-10T14:57:11.749Z,2.70
2023-05-10T14:59:39.306Z,3.33
2023-05-10T15:02:09.372Z,3.38
2023-05-10T15:04:37.384Z,3.20
2023-05-10T15:07:05.541Z,2.15
2023-05-10T15:09:33.355Z,2.35
2023-05-10T15:12:01.677Z,2.17
2023-05-10T15:14:29.564Z,2.50
2023-05-10T15:16:57.235Z,2.55
2023-05-10T15:19:24.987Z,2.08
2023-05-10T15:21:56.327Z,2.13
2023-05-10T15:24:23.840Z,2.28
2023-05-10T15:26:51.731Z,2.47
2023-05-10T15:29:21.259Z,1.88
2023-05-10T15:31:49.592Z,2.00
2023-05-10T15:34:18.887Z,1.60
2023-05-10T15:36:47.002Z,2.13
2023-05-10T15:39:14.838Z,2.92
2023-05-10T15:41:43.667Z,2.55
2023-05-10T15:44:12.057Z,2.70
2023-05-10T15:46:40.217Z,2.17
2023-05-10T15:51:36.638Z,2.08
2023-05-10T15:54:07.756Z,1.67
2023-05-10T15:56:36.590Z,1.45
2023-05-10T15:59:04.156Z,1.50
2023-05-10T16:01:32.655Z,1.48
2023-05-10T16:04:01.043Z,1.80
2023-05-10T16:06:28.603Z,1.80
2023-05-10T16:08:56.108Z,1.60
2023-05-10T16:11:23.642Z,2.10
2023-05-10T16:13:51.230Z,2.10
2023-05-10T16:16:18.979Z,2.17
2023-05-10T16:18:46.761Z,2.00
2023-05-10T16:21:14.612Z,2.35
2023-05-10T16:23:42.280Z,2.85
2023-05-10T16:26:10.148Z,3.17
2023-05-10T16:28:38.860Z,3.30
2023-05-10T16:31:06.537Z,3.30
2023-05-10T16:33:34.096Z,3.08
2023-05-10T16:36:01.710Z,3.60
2023-05-10T16:38:29.603Z,2.67
2023-05-10T16:43:26.078Z,3.20
2023-05-10T16:45:53.936Z,2.95
2023-05-10T16:53:16.986Z,2.50
2023-05-10T16:55:45.461Z,2.25
2023-05-10T16:58:13.147Z,2.50
2023-05-10T17:00:41.479Z,2.83
2023-05-10T17:03:09.231Z,2.47
2023-05-10T17:05:37.033Z,2.40
2023-05-10T17:08:04.628Z,2.55
2023-05-10T17:10:32.377Z,2.08
2023-05-10T17:12:59.893Z,2.40
2023-05-10T17:15:27.427Z,2.10
2023-05-10T17:17:55.359Z,2.83
2023-05-10T17:20:23.145Z,2.15
2023-05-10T17:22:50.878Z,2.10
2023-05-10T17:25:18.843Z,2.30
2023-05-10T17:27:46.708Z,1.90
2023-05-10T17:30:14.888Z,2.17
2023-05-10T17:32:42.526Z,2.00
2023-05-10T17:35:10.399Z,1.75
2023-05-10T17:37:38.021Z,1.83
2023-05-10T17:40:07.880Z,1.92
2023-05-10T17:42:35.581Z,1.88
2023-05-10T17:45:03.901Z,1.08
2023-05-10T17:47:31.679Z,1.40
2023-05-10T17:49:59.341Z,1.60
2023-05-10T17:52:27.455Z,1.50
2023-05-10T17:54:55.130Z,1.40
2023-05-10T17:57:24.042Z,1.42
2023-05-10T17:59:51.750Z,1.35
2023-05-10T18:02:19.417Z,1.30
2023-05-10T18:04:49.196Z,1.27
2023-05-10T18:07:19.299Z,1.70
2023-05-10T18:09:46.836Z,1.73
2023-05-10T18:12:14.401Z,1.77
2023-05-10T18:14:42.158Z,1.80
2023-05-10T18:17:10.312Z,2.05
2023-05-10T18:19:38.901Z,2.00
2023-05-10T18:22:08.912Z,2.00
2023-05-10T18:24:39.884Z,1.90
2023-05-10T18:27:09.220Z,2.10
2023-05-10T18:29:37.154Z,2.05
2023-05-10T18:37:00.195Z,1.75
2023-05-10T18:39:28.061Z,2.20
2023-05-10T18:43:35.923Z,1.70
2023-05-10T18:46:03.882Z,1.80
2023-05-10T18:48:31.372Z,1.60
2023-05-10T18:51:01.807Z,1.40
2023-05-10T18:53:30.044Z,1.40
2023-05-10T18:55:58.988Z,1.90
2023-05-10T18:58:29.520Z,1.70
2023-05-10T19:00:58.803Z,2.03
2023-05-10T19:03:26.937Z,2.40
2023-05-10T19:05:54.602Z,2.25
2023-05-10T19:08:22.615Z,1.58
2023-05-10T19:13:27.710Z,2.13
2023-05-10T19:16:20.567Z,2.10
2023-05-10T19:18:48.971Z,2.15
2023-05-10T19:21:17.557Z,2.10
2023-05-10T19:26:13.675Z,2.13
2023-05-10T19:28:41.609Z,2.03
2023-05-10T19:31:09.570Z,2.50
2023-05-10T19:33:38.473Z,2.45
2023-05-10T19:36:08.384Z,2.47
2023-05-10T19:38:37.694Z,2.00
2023-05-10T19:41:05.831Z,2.42
2023-05-10T19:43:34.558Z,2.22
2023-05-10T19:46:02.964Z,2.60
2023-05-10T19:48:31.195Z,2.20
2023-05-10T19:51:03.636Z,2.15
2023-05-10T19:53:32.522Z,2.30
2023-05-10T19:56:06.455Z,2.63
2023-05-10T19:58:40.436Z,2.10
2023-05-10T20:01:11.716Z,2.22
2023-05-10T20:03:39.899Z,2.10
2023-05-10T20:06:07.634Z,2.40
2023-05-10T20:08:35.434Z,2.60
2023-05-10T20:11:03.886Z,2.53
2023-05-10T20:13:31.730Z,2.50
2023-05-10T20:15:59.937Z,2.67
2023-05-10T20:18:27.889Z,2.20
2023-05-10T20:23:23.820Z,2.47
2023-05-10T20:25:51.907Z,2.30
2023-05-10T20:30:52.910Z,2.55
2023-05-10T20:33:22.063Z,1.95
2023-05-10T20:35:50.526Z,2.30
2023-05-10T20:38:18.482Z,2.10
2023-05-10T20:40:46.669Z,2.13
2023-05-10T20:43:14.251Z,2.20
2023-05-10T20:45:42.081Z,1.92
2023-05-10T20:48:09.743Z,2.40
2023-05-10T20:50:37.268Z,2.15
2023-05-10T20:53:05.047Z,2.40
2023-05-10T20:55:32.709Z,2.40
2023-05-10T20:58:01.565Z,2.55
2023-05-10T21:00:34.057Z,2.08
2023-05-10T21:03:01.883Z,2.20
2023-05-10T21:05:29.788Z,2.20
2023-05-10T21:07:57.459Z,2.38
2023-05-10T21:10:28.308Z,2.45
2023-05-10T21:12:57.822Z,2.38
2023-05-10T21:17:54.345Z,2.40
2023-05-10T21:20:23.475Z,2.30
2023-05-10T21:22:51.300Z,2.40
2023-05-10T21:25:22.651Z,2.72
2023-05-10T21:27:50.318Z,2.45
2023-05-10T21:30:19.244Z,2.10
2023-05-10T21:32:47.086Z,2.58
2023-05-10T21:35:15.538Z,2.92
2023-05-10T21:37:43.115Z,2.70
2023-05-10T21:40:11.464Z,2.42
2023-05-10T21:42:39.013Z,2.78
2023-05-10T21:45:07.377Z,2.67
2023-05-10T21:47:35.003Z,2.55
2023-05-10T21:50:02.612Z,2.53
2023-05-10T21:52:30.475Z,2.92
2023-05-10T21:54:58.058Z,2.80
2023-05-10T21:57:25.656Z,3.08
2023-05-10T21:59:53.278Z,3.03
2023-05-10T22:02:20.993Z,2.67
2023-05-10T22:04:48.614Z,2.83
2023-05-10T22:07:17.052Z,3.00
2023-05-10T22:09:44.604Z,3.08
2023-05-10T22:12:12.991Z,3.10
2023-05-10T22:14:40.541Z,2.90
2023-05-10T22:17:08.345Z,3.30
2023-05-10T22:19:36.038Z,2.67
2023-05-10T22:22:04.047Z,3.22
2023-05-10T22:24:31.834Z,3.08
2023-05-10T22:26:59.350Z,3.40
2023-05-10T22:29:27.439Z,3.10
2023-05-10T22:31:54.960Z,3.00
2023-05-10T22:34:22.781Z,3.25
2023-05-10T22:36:50.691Z,3.22
2023-05-10T22:39:18.210Z,3.15
2023-05-10T22:41:45.769Z,2.90
2023-05-10T22:44:13.385Z,2.92
2023-05-10T22:46:41.255Z,3.08
2023-05-10T22:49:09.701Z,3.65
2023-05-10T22:51:37.541Z,2.90
2023-05-10T22:54:05.475Z,3.20
2023-05-10T22:56:34.164Z,3.22
2023-05-10T22:59:02.019Z,3.03
2023-05-10T23:01:29.901Z,2.95
2023-05-10T23:03:57.527Z,2.80
2023-05-10T23:06:25.832Z,3.35
2023-05-10T23:08:54.218Z,2.70
2023-05-10T23:11:24.480Z,3.35
2023-05-10T23:13:52.191Z,3.30
2023-05-10T23:16:19.775Z,4.00
2023-05-10T23:18:47.404Z,2.97
2023-05-10T23:21:15.000Z,3.15
2023-05-10T23:23:45.623Z,3.25
2023-05-10T23:26:13.215Z,3.10
2023-05-10T23:28:41.111Z,2.88
2023-05-10T23:31:09.005Z,3.28
2023-05-10T23:33:37.339Z,4.00
2023-05-10T23:38:32.295Z,3.30
2023-05-10T23:40:59.842Z,3.38
2023-05-10T23:43:27.508Z,3.05
2023-05-10T23:46:00.462Z,2.47
2023-05-10T23:48:34.549Z,3.10
2023-05-10T23:51:10.926Z,2.90
2023-05-10T23:53:41.842Z,3.05
2023-05-10T23:56:09.373Z,3.22
2023-05-10T23:58:37.436Z,3.60
